Port Charlotte, FL (33952)

2:07 AM EST on January 31, 2015 (GMT -0500)
41 @ MIDWAY | Change Station
CLOSE
Current Station
Personal Weather Station
Location: Port Charlotte, FL
Elevation: 16 ft
Nearby Weather Stations

Elev 16 ft 26.99 °N, 82.11 °W | Updated 2 minutes ago

Clear
Clear
52.3 °F
Feels Like 52.3 °F
N
0.0
Wind Variable Wind from NNE
Gusts 8.0 mph

Today
High -- | Low -- °F
--% Chance of Precip.
Yesterday
High -- | Low -- °F
Precip. -- in
7:14 AM 6:09 PM
Waxing Gibbous, 88% visible
Pressure 30.22 in
Visibility 8.0 miles
Clouds Clear
Dew Point 50 °F
Humidity 91%
Rainfall 0.00 in
Snow Depth Not available.
UV 0.0 out of 12
Pollen 9.20 out of 12
Air Quality Not available.
Flu Activity Not available.
METAR KPGD 310653Z AUTO 04007KT 8SM CLR 11/10 A3022 RMK AO2 SLP234 T01060100

More Conditions Fewer Conditions

Pressure 30.22 in
Visibility 8.0 miles
Clouds Clear
Dew Point 50 °F
Humidity 91%
Rainfall 0.00 in
Snow Depth Not available.
UV 0.0 out of 12
Pollen 9.20 out of 12
Air Quality Not available.
Flu Activity Not available.
METAR KPGD 310653Z AUTO 04007KT 8SM CLR 11/10 A3022 RMK AO2 SLP234 T01060100

More Conditions Fewer Conditions

10-Day Weather Forecast

Almanac

Astronomy

Jan. 31, 2015 Rise Set
Actual Time
Civil Twilight
Nautical Twilight
Astronomical Twilight
Moon
Length of Visible Light
Length of Day
Tomorrow will be .
, % of the Moon is Illuminated

Today's Extremes

State Highs State Lows

Community

WunderPhotos

Upload Photos

1,792,014 photos uploaded!

WunderBlogs® & News

Nearby

Air Quality

  Air Quality AQ Index Pollutant
Not available.

Snow Depth

Station Depth Elevation

Earthquake Activity

City Distance Mag. Time & Date
Minimum magnitude displayed is 2.5.

Coastal Water Temperatures

Place Temperature

Nearby Weather Stations